createdAt,value
2022-10-22T00:01:00.516Z,99.33
2022-10-22T00:03:28.326Z,99.83
2022-10-22T00:05:56.271Z,99.46
2022-10-22T00:08:24.252Z,99.64
2022-10-22T00:10:52.913Z,99.51
2022-10-22T00:13:22.194Z,99.49
2022-10-22T00:15:50.062Z,99.29
2022-10-22T00:18:17.924Z,99.14
2022-10-22T00:20:45.763Z,98.99
2022-10-22T00:23:13.953Z,99.36
2022-10-22T00:25:41.757Z,99.32
2022-10-22T00:28:12.711Z,100.00
2022-10-22T00:30:42.097Z,100.00
2022-10-22T00:33:09.972Z,100.00
2022-10-22T00:35:40.593Z,100.00
2022-10-22T00:38:08.428Z,100.00
2022-10-22T00:40:36.332Z,100.00
2022-10-22T00:43:04.278Z,100.00
2022-10-22T00:45:32.211Z,100.00
2022-10-22T00:48:05.957Z,100.00
2022-10-22T00:50:36.986Z,100.00
2022-10-22T00:53:08.102Z,100.00
2022-10-22T00:55:36.492Z,100.00
2022-10-22T00:58:05.243Z,100.00
2022-10-22T01:00:33.911Z,100.00
2022-10-22T01:03:03.386Z,100.00
2022-10-22T01:05:34.237Z,100.00
2022-10-22T01:08:02.105Z,100.00
2022-10-22T01:10:46.436Z,100.00
2022-10-22T01:13:24.351Z,100.00
2022-10-22T01:15:58.246Z,100.00
2022-10-22T01:18:36.580Z,100.00
2022-10-22T01:21:13.643Z,100.00
2022-10-22T01:23:58.992Z,100.00
2022-10-22T01:26:34.640Z,100.00
2022-10-22T01:29:10.312Z,100.00
2022-10-22T01:31:44.608Z,100.00
2022-10-22T01:34:15.336Z,100.00
2022-10-22T01:36:45.177Z,100.00
2022-10-22T01:39:15.290Z,100.00
2022-10-22T01:41:45.341Z,100.00
2022-10-22T01:44:29.614Z,100.00
2022-10-22T01:47:09.101Z,100.00
2022-10-22T01:49:57.430Z,100.00
2022-10-22T01:52:33.378Z,100.00
2022-10-22T01:55:21.254Z,100.00
2022-10-22T01:57:56.271Z,100.00
2022-10-22T02:00:25.820Z,100.00
2022-10-22T02:03:00.786Z,100.00
2022-10-22T02:05:33.996Z,100.00
2022-10-22T02:08:06.766Z,100.00
2022-10-22T02:10:38.351Z,100.00
2022-10-22T02:13:10.872Z,100.00
2022-10-22T02:15:41.124Z,100.00
2022-10-22T02:18:11.236Z,100.00
2022-10-22T02:20:41.877Z,100.00
2022-10-22T02:23:10.869Z,100.00
2022-10-22T02:25:41.831Z,100.00
2022-10-22T02:28:16.342Z,100.00
2022-10-22T02:30:52.229Z,100.00
2022-10-22T02:33:23.966Z,100.00
2022-10-22T02:35:54.227Z,100.00
2022-10-22T02:38:23.944Z,100.00
2022-10-22T02:40:51.909Z,100.00
2022-10-22T02:43:19.851Z,100.00
2022-10-22T02:45:48.989Z,100.00
2022-10-22T02:48:16.862Z,100.00
2022-10-22T02:50:44.669Z,100.00
2022-10-22T02:53:12.455Z,100.00
2022-10-22T02:55:40.232Z,100.00
2022-10-22T02:58:07.924Z,100.00
2022-10-22T03:00:35.723Z,100.00
2022-10-22T03:03:04.938Z,100.00
2022-10-22T03:05:32.675Z,100.00
2022-10-22T03:08:00.543Z,100.00
2022-10-22T03:10:28.784Z,100.00
2022-10-22T03:12:57.083Z,100.00
2022-10-22T03:15:24.927Z,100.00
2022-10-22T03:17:52.816Z,100.00
2022-10-22T03:20:21.929Z,100.00
2022-10-22T03:22:49.719Z,100.00
2022-10-22T03:25:22.010Z,100.00
2022-10-22T03:27:50.750Z,100.00
2022-10-22T03:30:18.647Z,100.00
2022-10-22T03:32:46.486Z,100.00
2022-10-22T03:35:14.484Z,100.00
2022-10-22T03:37:43.843Z,100.00
2022-10-22T03:40:12.917Z,100.00
2022-10-22T03:42:41.261Z,100.00
2022-10-22T03:45:10.342Z,100.00
2022-10-22T03:47:38.555Z,100.00
2022-10-22T03:50:07.673Z,100.00
2022-10-22T03:52:38.045Z,100.00
2022-10-22T03:55:08.924Z,100.00
2022-10-22T03:57:40.163Z,100.00
2022-10-22T04:00:10.067Z,100.00
2022-10-22T04:02:37.807Z,100.00
2022-10-22T04:05:06.210Z,100.00
2022-10-22T04:07:34.049Z,100.00
2022-10-22T04:10:01.833Z,100.00
2022-10-22T04:12:30.979Z,100.00
2022-10-22T04:14:58.739Z,100.00
2022-10-22T04:17:26.489Z,100.00
2022-10-22T04:19:54.384Z,100.00
2022-10-22T04:22:22.228Z,100.00
2022-10-22T04:27:18.622Z,100.00
2022-10-22T04:29:48.053Z,100.00
2022-10-22T04:32:15.838Z,100.00
2022-10-22T04:34:43.775Z,100.00
2022-10-22T04:37:11.587Z,100.00
2022-10-22T04:39:39.553Z,100.00
2022-10-22T04:42:07.568Z,100.00
2022-10-22T04:44:35.571Z,100.00
2022-10-22T04:47:04.931Z,100.00
2022-10-22T04:49:32.733Z,100.00
2022-10-22T04:52:00.525Z,100.00
2022-10-22T04:54:32.178Z,100.00
2022-10-22T04:57:01.077Z,100.00
2022-10-22T04:59:28.819Z,100.00
2022-10-22T05:01:56.669Z,100.00
2022-10-22T05:04:25.827Z,100.00
2022-10-22T05:06:53.691Z,100.00
2022-10-22T05:09:22.643Z,100.00
2022-10-22T05:11:52.387Z,100.00
2022-10-22T05:14:22.902Z,100.00
2022-10-22T05:16:51.335Z,100.00
2022-10-22T05:19:21.474Z,100.00
2022-10-22T05:21:50.677Z,100.00
2022-10-22T05:24:18.519Z,100.00
2022-10-22T05:26:46.712Z,100.00
2022-10-22T05:29:14.897Z,100.00
2022-10-22T05:31:42.784Z,100.00
2022-10-22T05:34:13.973Z,100.00
2022-10-22T05:36:42.141Z,100.00
2022-10-22T05:39:11.367Z,100.00
2022-10-22T05:41:39.517Z,100.00
2022-10-22T05:44:07.329Z,100.00
2022-10-22T05:46:36.910Z,100.00
2022-10-22T05:49:06.908Z,100.00
2022-10-22T05:51:37.126Z,100.00
2022-10-22T05:54:07.512Z,100.00
2022-10-22T05:56:38.132Z,100.00
2022-10-22T05:59:06.210Z,100.00
2022-10-22T06:01:35.922Z,100.00
2022-10-22T06:04:05.989Z,100.00
2022-10-22T06:06:36.197Z,100.00
2022-10-22T06:09:07.867Z,100.00
2022-10-22T06:11:37.617Z,100.00
2022-10-22T06:14:05.977Z,100.00
2022-10-22T06:16:33.790Z,100.00
2022-10-22T06:19:02.163Z,100.00
2022-10-22T06:21:30.826Z,100.00
2022-10-22T06:23:59.136Z,100.00
2022-10-22T06:26:27.285Z,100.00
2022-10-22T06:28:57.233Z,100.00
2022-10-22T06:31:28.571Z,100.00
2022-10-22T06:33:57.933Z,100.00
2022-10-22T06:36:26.300Z,100.00
2022-10-22T06:38:54.918Z,100.00
2022-10-22T06:41:27.179Z,100.00
2022-10-22T06:44:00.252Z,100.00
2022-10-22T06:46:28.562Z,100.00
2022-10-22T06:48:59.129Z,100.00
2022-10-22T06:51:28.186Z,100.00
2022-10-22T06:53:56.820Z,100.00
2022-10-22T06:56:26.507Z,100.00
2022-10-22T06:58:56.392Z,100.00
2022-10-22T07:01:28.034Z,100.00
2022-10-22T07:03:55.987Z,100.00
2022-10-22T07:06:25.171Z,100.00
2022-10-22T07:08:54.514Z,100.00
2022-10-22T07:11:24.091Z,100.00
2022-10-22T07:13:52.926Z,100.00
2022-10-22T07:16:20.820Z,100.00
2022-10-22T07:18:50.089Z,100.00
2022-10-22T07:21:20.314Z,100.00
2022-10-22T07:23:48.171Z,100.00
2022-10-22T07:26:20.348Z,100.00
2022-10-22T07:28:48.730Z,100.00
2022-10-22T07:31:17.240Z,100.00
2022-10-22T07:33:45.504Z,100.00
2022-10-22T07:36:17.792Z,100.00
2022-10-22T07:38:46.130Z,100.00
2022-10-22T07:41:14.465Z,100.00
2022-10-22T07:43:42.439Z,100.00
2022-10-22T07:46:10.271Z,100.00
2022-10-22T07:48:38.406Z,100.00
2022-10-22T07:51:06.914Z,100.00
2022-10-22T07:53:36.144Z,100.00
2022-10-22T07:56:04.390Z,100.00
2022-10-22T07:58:32.546Z,100.00
2022-10-22T08:01:02.025Z,100.00
2022-10-22T08:03:30.838Z,100.00
2022-10-22T08:05:59.053Z,100.00
2022-10-22T08:08:30.466Z,100.00
2022-10-22T08:11:01.791Z,100.00
2022-10-22T08:13:31.186Z,100.00
2022-10-22T08:16:00.112Z,100.00
2022-10-22T08:18:28.143Z,100.00
2022-10-22T08:20:55.916Z,100.00
2022-10-22T08:23:26.106Z,100.00
2022-10-22T08:25:56.150Z,100.00
2022-10-22T08:28:25.438Z,100.00
2022-10-22T08:30:53.260Z,100.00
2022-10-22T08:33:21.086Z,100.00
2022-10-22T08:35:50.563Z,100.00
2022-10-22T08:38:18.809Z,100.00
2022-10-22T08:40:51.175Z,100.00
2022-10-22T08:43:51.591Z,100.00
2022-10-22T08:46:38.589Z,99.63
2022-10-22T08:49:11.175Z,100.00
2022-10-22T08:51:40.568Z,100.00
2022-10-22T08:54:19.699Z,99.39
2022-10-22T08:56:55.955Z,99.75
2022-10-22T08:59:29.250Z,100.00
2022-10-22T09:01:56.997Z,100.00
2022-10-22T09:04:29.927Z,100.00
2022-10-22T09:07:00.105Z,99.74
2022-10-22T09:09:32.834Z,100.00
2022-10-22T09:12:02.559Z,99.68
2022-10-22T09:14:31.931Z,99.73
2022-10-22T09:17:21.968Z,98.59
2022-10-22T09:20:03.104Z,98.84
2022-10-22T09:22:39.490Z,98.87
2022-10-22T09:25:20.448Z,98.13
2022-10-22T09:27:48.852Z,98.75
2022-10-22T09:30:19.407Z,98.67
2022-10-22T09:32:47.349Z,97.56
2022-10-22T09:35:15.868Z,98.45
2022-10-22T09:37:53.357Z,97.16
2022-10-22T09:40:22.269Z,97.41
2022-10-22T09:42:50.530Z,97.55
2022-10-22T09:45:22.328Z,98.04
2022-10-22T09:48:01.552Z,97.53
2022-10-22T09:50:38.095Z,97.70
2022-10-22T09:53:13.413Z,96.04
2022-10-22T09:55:43.224Z,96.25
2022-10-22T09:58:12.926Z,96.16
2022-10-22T10:00:45.901Z,96.27
2022-10-22T10:03:18.952Z,95.63
2022-10-22T10:05:49.817Z,96.07
2022-10-22T10:08:19.285Z,95.98
2022-10-22T10:10:49.452Z,95.60
2022-10-22T10:13:32.028Z,94.31
2022-10-22T10:16:09.620Z,95.03
2022-10-22T10:18:52.896Z,94.24
2022-10-22T10:21:27.805Z,94.55
2022-10-22T10:24:03.672Z,94.10
2022-10-22T10:26:36.877Z,94.19
2022-10-22T10:29:19.867Z,91.66
2022-10-22T10:32:09.173Z,91.83
2022-10-22T10:34:46.044Z,92.98
2022-10-22T10:37:23.215Z,92.91
2022-10-22T10:40:11.416Z,91.57
2022-10-22T10:42:45.515Z,91.32
2022-10-22T10:45:18.911Z,91.20
2022-10-22T10:48:23.041Z,90.82
2022-10-22T10:51:05.147Z,91.20
2022-10-22T10:53:48.785Z,91.13
2022-10-22T10:56:34.397Z,90.96
2022-10-22T10:59:15.434Z,91.24
2022-10-22T11:01:55.181Z,90.69
2022-10-22T11:05:22.364Z,89.71
2022-10-22T11:07:56.119Z,91.32
2022-10-22T11:10:30.921Z,89.73
2022-10-22T11:13:03.629Z,89.79
2022-10-22T11:15:35.071Z,89.72
2022-10-22T11:18:12.956Z,88.79
2022-10-22T11:20:51.790Z,87.28
2022-10-22T11:23:25.864Z,88.22
2022-10-22T11:25:53.946Z,88.61
2022-10-22T11:28:27.141Z,87.03
2022-10-22T11:31:01.202Z,87.64
2022-10-22T11:33:37.608Z,86.34
2022-10-22T11:36:08.770Z,85.92
2022-10-22T11:38:38.236Z,85.89
2022-10-22T11:41:11.029Z,86.21
2022-10-22T11:43:57.589Z,85.77
2022-10-22T11:46:36.540Z,86.26
2022-10-22T11:49:17.143Z,86.19
2022-10-22T11:51:47.531Z,86.76
2022-10-22T11:54:42.475Z,84.47
2022-10-22T11:57:29.237Z,85.67
2022-10-22T12:00:01.911Z,86.03
2022-10-22T12:02:41.262Z,85.91
2022-10-22T12:05:36.253Z,85.58
2022-10-22T12:08:24.717Z,85.83
2022-10-22T12:11:01.475Z,85.99
2022-10-22T12:13:32.955Z,85.83
2022-10-22T12:16:04.753Z,85.81
2022-10-22T12:18:42.348Z,85.39
2022-10-22T12:21:13.985Z,84.11
2022-10-22T12:23:44.897Z,83.59
2022-10-22T12:26:25.591Z,83.83
2022-10-22T12:28:58.794Z,82.85
2022-10-22T12:31:26.855Z,83.69
2022-10-22T12:33:58.831Z,83.63
2022-10-22T12:36:28.296Z,84.25
2022-10-22T12:39:00.810Z,83.49
2022-10-22T12:41:32.972Z,80.51
2022-10-22T12:44:01.670Z,81.95
2022-10-22T12:46:33.214Z,82.54
2022-10-22T12:49:03.052Z,81.78
2022-10-22T12:54:10.578Z,81.61
2022-10-22T12:56:39.254Z,82.40
2022-10-22T12:59:14.965Z,82.10
2022-10-22T13:01:44.515Z,81.80
2022-10-22T13:04:35.380Z,80.80
2022-10-22T13:07:22.475Z,81.12
2022-10-22T13:10:00.656Z,80.99
2022-10-22T13:12:35.838Z,81.29
2022-10-22T13:15:34.034Z,80.92
2022-10-22T13:18:08.151Z,81.57
2022-10-22T13:20:37.424Z,81.79
2022-10-22T13:23:06.919Z,81.52
2022-10-22T13:25:38.576Z,80.79
2022-10-22T13:28:20.433Z,80.41
2022-10-22T13:30:54.292Z,80.47
2022-10-22T13:33:27.647Z,80.23
2022-10-22T13:35:57.491Z,81.23
2022-10-22T13:38:27.554Z,80.95
2022-10-22T13:40:57.424Z,80.80
2022-10-22T13:43:26.320Z,81.19
2022-10-22T13:45:56.999Z,81.32
2022-10-22T13:48:26.739Z,79.96
2022-10-22T13:50:54.912Z,81.24
2022-10-22T13:53:25.067Z,81.14
2022-10-22T13:55:55.913Z,81.60
2022-10-22T13:58:25.829Z,80.67
2022-10-22T14:00:56.962Z,80.11
2022-10-22T14:03:29.196Z,80.46
2022-10-22T14:05:57.229Z,80.66
2022-10-22T14:08:28.094Z,79.95
2022-10-22T14:10:56.057Z,80.16
2022-10-22T14:13:25.583Z,79.08
2022-10-22T14:15:53.737Z,80.11
2022-10-22T14:18:26.734Z,79.86
2022-10-22T14:20:56.252Z,79.69
2022-10-22T14:23:26.462Z,79.31
2022-10-22T14:25:54.411Z,80.39
2022-10-22T14:28:22.337Z,80.62
2022-10-22T14:30:52.905Z,81.20
2022-10-22T14:33:27.263Z,80.98
2022-10-22T14:35:59.343Z,81.07
2022-10-22T14:38:27.480Z,80.80
2022-10-22T14:40:55.910Z,80.17
2022-10-22T14:43:27.637Z,80.98
2022-10-22T14:45:57.466Z,81.01
2022-10-22T14:48:25.828Z,80.26
2022-10-22T14:50:53.648Z,79.83
2022-10-22T14:53:21.382Z,80.73
2022-10-22T14:55:51.457Z,80.99
2022-10-22T14:58:19.203Z,80.61
2022-10-22T15:00:47.118Z,81.01
2022-10-22T15:03:16.409Z,80.83
2022-10-22T15:05:45.414Z,81.09
2022-10-22T15:08:14.516Z,80.37
2022-10-22T15:10:44.931Z,80.39
2022-10-22T15:13:12.774Z,80.46
2022-10-22T15:15:41.143Z,80.81
2022-10-22T15:18:09.323Z,80.71
2022-10-22T15:20:38.462Z,80.63
2022-10-22T15:23:06.345Z,80.49
2022-10-22T15:25:34.114Z,80.81
2022-10-22T15:28:09.072Z,81.10
2022-10-22T15:30:37.807Z,81.33
2022-10-22T15:33:06.393Z,81.30
2022-10-22T15:35:34.266Z,80.71
2022-10-22T15:38:06.473Z,80.98
2022-10-22T15:40:34.357Z,81.39
2022-10-22T15:43:02.162Z,80.99
2022-10-22T15:45:30.008Z,81.58
2022-10-22T15:47:58.401Z,81.58
2022-10-22T15:50:26.258Z,82.00
2022-10-22T15:52:54.266Z,82.14
2022-10-22T15:55:23.455Z,82.38
2022-10-22T15:57:55.172Z,82.53
2022-10-22T16:00:25.043Z,83.09
2022-10-22T16:02:54.633Z,83.38
2022-10-22T16:05:22.616Z,83.61
2022-10-22T16:07:51.492Z,83.57
2022-10-22T16:10:19.395Z,83.97
2022-10-22T16:12:51.457Z,84.05
2022-10-22T16:15:19.329Z,84.17
2022-10-22T16:17:47.092Z,84.41
2022-10-22T16:20:14.852Z,84.43
2022-10-22T16:22:42.834Z,84.70
2022-10-22T16:25:10.912Z,84.70
2022-10-22T16:27:39.292Z,84.71
2022-10-22T16:30:09.322Z,84.61
2022-10-22T16:32:37.191Z,84.87
2022-10-22T16:35:05.337Z,84.77
2022-10-22T16:37:33.178Z,85.08
2022-10-22T16:40:04.423Z,84.91
2022-10-22T16:42:35.910Z,84.99
2022-10-22T16:45:03.764Z,85.08
2022-10-22T16:47:32.917Z,84.53
2022-10-22T16:50:01.255Z,84.83
2022-10-22T16:52:29.077Z,85.16
2022-10-22T16:54:58.250Z,84.80
2022-10-22T16:57:26.080Z,85.24
2022-10-22T16:59:53.958Z,84.85
2022-10-22T17:02:22.293Z,84.97
2022-10-22T17:04:51.462Z,85.03
2022-10-22T17:07:19.350Z,85.22
2022-10-22T17:09:47.135Z,85.37
2022-10-22T17:12:14.885Z,85.19
2022-10-22T17:14:42.696Z,85.25
2022-10-22T17:17:10.571Z,85.17
2022-10-22T17:19:39.179Z,85.40
2022-10-22T17:22:08.756Z,85.59
2022-10-22T17:24:36.500Z,85.43
2022-10-22T17:29:37.272Z,85.80
2022-10-22T17:32:05.332Z,85.51
2022-10-22T17:34:33.331Z,85.88
2022-10-22T17:37:01.165Z,85.93
2022-10-22T17:39:30.291Z,86.26
2022-10-22T17:41:58.094Z,86.29
2022-10-22T17:44:25.821Z,85.97
2022-10-22T17:46:53.991Z,86.09
2022-10-22T17:49:21.809Z,86.53
2022-10-22T17:51:49.652Z,85.98
2022-10-22T17:54:17.530Z,86.15
2022-10-22T17:56:46.763Z,86.76
2022-10-22T17:59:17.132Z,86.39
2022-10-22T18:01:47.665Z,86.57
2022-10-22T18:04:17.764Z,86.54
2022-10-22T18:06:47.033Z,86.67
2022-10-22T18:09:18.493Z,86.35
2022-10-22T18:11:48.842Z,86.93
2022-10-22T18:14:17.948Z,87.12
2022-10-22T18:16:46.344Z,87.36
2022-10-22T18:19:16.549Z,87.34
2022-10-22T18:21:44.214Z,87.13
2022-10-22T18:24:12.293Z,87.60
2022-10-22T18:26:40.098Z,87.12
2022-10-22T18:29:09.297Z,87.44
2022-10-22T18:31:37.098Z,87.58
2022-10-22T18:34:04.920Z,87.15
2022-10-22T18:36:32.654Z,87.22
2022-10-22T18:39:01.795Z,87.36
2022-10-22T18:41:30.909Z,87.80
2022-10-22T18:44:00.268Z,87.63
2022-10-22T18:46:30.955Z,87.35
2022-10-22T18:48:59.998Z,88.20
2022-10-22T18:51:30.642Z,88.38
2022-10-22T18:54:05.229Z,88.38
2022-10-22T18:56:40.817Z,88.05
2022-10-22T18:59:15.016Z,88.38
2022-10-22T19:01:44.183Z,87.87
2022-10-22T19:04:13.695Z,88.16
2022-10-22T19:06:44.489Z,88.40
2022-10-22T19:09:14.522Z,88.26
2022-10-22T19:11:43.489Z,88.21
2022-10-22T19:14:11.297Z,88.41
2022-10-22T19:16:39.374Z,88.59
2022-10-22T19:19:09.477Z,89.05
2022-10-22T19:21:38.215Z,88.78
2022-10-22T19:24:06.688Z,89.21
2022-10-22T19:26:35.332Z,89.08
2022-10-22T19:29:03.498Z,89.16
2022-10-22T19:31:32.152Z,89.25
2022-10-22T19:34:02.080Z,88.85
2022-10-22T19:36:32.818Z,88.85
2022-10-22T19:39:01.016Z,89.14
2022-10-22T19:41:30.754Z,89.30
2022-10-22T19:44:00.710Z,89.19
2022-10-22T19:46:32.465Z,89.12
2022-10-22T19:49:01.010Z,89.27
2022-10-22T19:51:33.843Z,89.54
2022-10-22T19:54:04.769Z,89.26
2022-10-22T19:56:33.934Z,88.95
2022-10-22T19:59:01.752Z,89.58
2022-10-22T20:01:31.834Z,89.16
2022-10-22T20:04:00.264Z,89.50
2022-10-22T20:06:28.523Z,89.47
2022-10-22T20:08:57.894Z,89.33
2022-10-22T20:11:28.228Z,89.69
2022-10-22T20:13:56.817Z,89.06
2022-10-22T20:16:28.477Z,89.03
2022-10-22T20:18:57.203Z,89.14
2022-10-22T20:21:25.103Z,89.61
2022-10-22T20:23:56.362Z,89.39
2022-10-22T20:26:28.313Z,89.38
2022-10-22T20:28:56.939Z,90.12
2022-10-22T20:31:27.166Z,89.97
2022-10-22T20:33:57.317Z,90.33
2022-10-22T20:36:26.232Z,90.23
2022-10-22T20:38:54.339Z,90.20
2022-10-22T20:41:24.002Z,90.35
2022-10-22T20:43:53.496Z,90.31
2022-10-22T20:46:23.557Z,90.30
2022-10-22T20:48:52.377Z,90.49
2022-10-22T20:51:20.542Z,90.77
2022-10-22T20:53:48.918Z,90.91
2022-10-22T20:56:17.627Z,90.96
2022-10-22T20:58:48.499Z,90.85
2022-10-22T21:01:21.827Z,91.26
2022-10-22T21:03:50.844Z,91.02
2022-10-22T21:06:20.975Z,91.30
2022-10-22T21:08:48.968Z,91.15
2022-10-22T21:11:16.907Z,91.60
2022-10-22T21:13:44.780Z,91.52
2022-10-22T21:16:14.207Z,91.77
2022-10-22T21:18:43.388Z,91.69
2022-10-22T21:21:11.684Z,92.00
2022-10-22T21:23:39.873Z,92.00
2022-10-22T21:26:07.845Z,92.25
2022-10-22T21:28:37.175Z,92.50
2022-10-22T21:31:06.036Z,92.13
2022-10-22T21:33:37.366Z,92.25
2022-10-22T21:36:09.205Z,92.70
2022-10-22T21:38:38.122Z,92.50
2022-10-22T21:41:06.822Z,92.80
2022-10-22T21:43:35.197Z,93.10
2022-10-22T21:46:08.236Z,92.78
2022-10-22T21:48:36.981Z,92.72
2022-10-22T21:51:10.301Z,92.78
2022-10-22T21:53:38.959Z,93.02
2022-10-22T21:56:08.162Z,93.46
2022-10-22T21:58:36.055Z,93.69
2022-10-22T22:01:04.477Z,93.50
2022-10-22T22:03:32.333Z,93.56
2022-10-22T22:06:00.569Z,93.82
2022-10-22T22:08:29.982Z,93.42
2022-10-22T22:11:02.491Z,93.63
2022-10-22T22:13:30.423Z,93.60
2022-10-22T22:16:01.879Z,93.92
2022-10-22T22:18:30.615Z,93.49
2022-10-22T22:20:59.870Z,94.22
2022-10-22T22:23:29.095Z,94.06
2022-10-22T22:26:00.051Z,93.84
2022-10-22T22:28:28.231Z,93.98
2022-10-22T22:30:56.360Z,94.02
2022-10-22T22:33:24.441Z,93.72
2022-10-22T22:35:52.518Z,94.19
2022-10-22T22:38:20.315Z,93.80
2022-10-22T22:40:49.448Z,94.31
2022-10-22T22:43:17.249Z,94.12
2022-10-22T22:45:45.037Z,94.08
2022-10-22T22:48:12.851Z,94.26
2022-10-22T22:50:40.657Z,93.91
2022-10-22T22:53:08.599Z,94.11
2022-10-22T22:55:36.416Z,94.06
2022-10-22T22:58:05.580Z,93.96
2022-10-22T23:00:34.068Z,94.38
2022-10-22T23:03:02.061Z,94.13
2022-10-22T23:05:29.853Z,94.17
2022-10-22T23:07:57.980Z,94.02
2022-10-22T23:10:25.721Z,93.98
2022-10-22T23:12:53.499Z,94.08
2022-10-22T23:15:22.593Z,94.41
2022-10-22T23:17:50.413Z,94.19
2022-10-22T23:20:18.721Z,94.42
2022-10-22T23:22:46.525Z,94.41
2022-10-22T23:25:14.477Z,94.96
2022-10-22T23:27:42.485Z,94.96
2022-10-22T23:30:11.508Z,95.12
2022-10-22T23:32:40.629Z,95.23
2022-10-22T23:35:09.118Z,94.84
2022-10-22T23:37:36.909Z,94.99
2022-10-22T23:40:05.327Z,94.95
2022-10-22T23:42:33.159Z,95.62
2022-10-22T23:45:01.159Z,95.55
2022-10-22T23:47:29.080Z,95.38
2022-10-22T23:49:58.245Z,95.70
2022-10-22T23:52:26.023Z,95.82
2022-10-22T23:54:53.798Z,95.80
2022-10-22T23:57:21.815Z,95.46
2022-10-22T23:59:49.602Z,95.56
